Time;durP1;ratioP1;P1;durP2;ratioP2;P2;SDS_P1;SDS_P2;PMS_P1;PMS_P2;Temp;Humidity;BMP_temperature;BMP_pressure;BME280_temperature;BME280_humidity;BME280_pressure;Samples;Min_cycle;Max_cycle;Signal;HPM_P1;HPM_P2
2022/04/20 00:01:55;;;;;;;9.18;4.13;;;11.10;49.90;;;10.16;40.89;96990.69;4950528;28;20406;-76
2022/04/20 00:04:20;;;;;;;7.05;3.75;;;11.10;50.00;;;10.10;41.82;96995.19;4951855;29;20426;-76
2022/04/20 00:06:48;;;;;;;6.97;3.70;;;11.00;50.70;;;9.98;41.82;96993.81;4951983;29;20421;-76
2022/04/20 00:09:14;;;;;;;9.50;3.88;;;10.90;50.80;;;9.98;41.93;96989.31;4951908;28;20448;-76
2022/04/20 00:11:39;;;;;;;5.20;4.07;;;10.90;51.00;;;9.95;42.35;96989.81;4951422;29;20911;-76
2022/04/20 00:14:06;;;;;;;7.50;4.03;;;10.90;51.30;;;9.98;42.43;96984.03;4950475;29;20654;-76
2022/04/20 00:16:31;;;;;;;5.38;3.72;;;10.90;51.70;;;9.97;42.83;96985.06;4951968;28;20413;-75
2022/04/20 00:18:57;;;;;;;9.63;4.28;;;10.90;52.10;;;9.99;42.58;96984.81;4951142;29;20753;-76
2022/04/20 00:21:23;;;;;;;6.65;4.35;;;10.90;52.00;;;9.91;42.91;96977.38;4944637;29;20478;-77
2022/04/20 00:23:51;;;;;;;5.25;3.65;;;10.90;52.20;;;9.92;43.21;96982.38;4943467;28;20430;-76
2022/04/20 00:26:17;;;;;;;7.32;4.38;;;10.90;52.50;;;9.90;43.16;96987.16;4950640;28;20954;-75
2022/04/20 00:28:43;;;;;;;10.25;4.53;;;10.80;52.50;;;9.79;43.77;96982.03;4951276;28;20509;-76
2022/04/20 00:31:09;;;;;;;8.38;4.18;;;10.70;53.00;;;9.75;44.18;96984.41;4950964;29;20483;-77
2022/04/20 00:33:35;;;;;;;7.45;4.60;;;10.70;53.50;;;9.74;44.29;96982.03;4951528;28;20414;-76
2022/04/20 00:36:02;;;;;;;5.63;4.05;;;10.70;53.50;;;9.76;44.94;96986.00;4951550;28;20522;-76
2022/04/20 00:38:28;;;;;;;9.53;4.10;;;10.70;54.10;;;9.74;44.89;96987.31;4951459;28;20421;-75
2022/04/20 00:40:56;;;;;;;6.85;4.20;;;10.70;54.40;;;9.71;45.35;96988.59;4950956;28;20414;-76
2022/04/20 00:43:22;;;;;;;6.03;4.50;;;10.60;54.70;;;9.61;45.06;96984.06;4951507;28;20553;-76
2022/04/20 00:45:49;;;;;;;9.32;4.53;;;10.60;54.70;;;9.50;45.20;96987.69;4951442;29;20417;-76
2022/04/20 00:48:16;;;;;;;6.75;4.30;;;10.40;54.70;;;9.50;45.68;96992.16;4951337;29;20413;-75
2022/04/20 00:50:42;;;;;;;6.50;4.10;;;10.40;55.00;;;9.48;45.53;96988.97;4950737;29;20849;-76
2022/04/20 00:53:08;;;;;;;7.53;4.25;;;10.40;55.20;;;9.47;45.62;96982.88;4951237;28;20405;-76
2022/04/20 00:55:34;;;;;;;7.05;4.28;;;10.40;55.30;;;9.43;45.63;96987.09;4951378;29;20468;-75
2022/04/20 00:58:02;;;;;;;4.90;4.00;;;10.40;55.30;;;9.43;45.96;96988.94;4951255;29;20441;-76
2022/04/20 01:00:29;;;;;;;7.05;4.40;;;10.40;55.60;;;9.44;45.67;96980.78;4950710;29;20463;-75
2022/04/20 01:02:55;;;;;;;7.78;3.78;;;10.40;55.60;;;9.33;46.31;96981.72;4951171;28;20460;-75
2022/04/20 01:05:22;;;;;;;10.07;4.25;;;10.30;55.80;;;9.34;46.56;96975.41;4949734;29;20417;-76
2022/04/20 01:07:49;;;;;;;7.28;4.30;;;10.30;56.20;;;9.28;46.41;96987.78;4951050;28;20497;-75
2022/04/20 01:10:15;;;;;;;6.03;3.97;;;10.20;56.20;;;9.30;46.77;96983.03;4950484;28;20414;-75
2022/04/20 01:12:43;;;;;;;4.57;3.70;;;10.30;56.40;;;9.21;46.69;96978.47;4950599;28;20463;-76
2022/04/20 01:15:12;;;;;;;6.43;3.92;;;10.20;56.60;;;9.20;46.81;96979.50;4951081;28;20422;-76
2022/04/20 01:17:38;;;;;;;7.38;4.38;;;10.20;56.80;;;9.11;47.45;96981.00;4950929;28;20468;-76
2022/04/20 01:20:12;;;;;;;6.00;4.13;;;10.10;57.50;;;9.12;47.64;96987.91;4950768;29;20426;-76
2022/04/20 01:22:39;;;;;;;6.85;4.30;;;10.10;57.40;;;9.12;47.09;96974.69;4950751;28;20465;-76
2022/04/20 01:25:07;;;;;;;5.97;4.00;;;10.00;57.40;;;9.02;47.53;96983.31;4950652;29;20479;-76
2022/04/20 01:27:34;;;;;;;8.02;4.25;;;10.00;57.60;;;8.95;47.94;96972.16;4950720;28;20953;-76
2022/04/20 01:30:00;;;;;;;7.05;4.63;;;10.00;58.00;;;8.99;48.25;96975.13;4950476;29;20421;-75
2022/04/20 01:32:26;;;;;;;6.70;4.13;;;9.90;58.30;;;8.90;48.17;96972.94;4950250;29;20446;-76
2022/04/20 01:34:52;;;;;;;7.28;4.25;;;9.90;58.40;;;8.87;48.35;96972.66;4950700;29;20413;-77
2022/04/20 01:37:18;;;;;;;6.90;4.32;;;9.90;58.60;;;8.83;47.54;96974.19;4950861;28;20425;-76
2022/04/20 01:39:45;;;;;;;5.50;4.25;;;9.80;57.90;;;8.75;48.00;96979.91;4950200;29;20783;-76
2022/04/20 01:42:11;;;;;;;8.38;4.63;;;9.80;58.20;;;8.72;48.63;96980.41;4950132;29;20411;-76
2022/04/20 01:44:37;;;;;;;8.52;4.40;;;9.70;58.70;;;8.66;48.21;96981.38;4950338;29;20429;-76
2022/04/20 01:47:03;;;;;;;6.05;3.92;;;9.60;58.50;;;8.63;48.44;96973.97;4949137;29;20460;-76
2022/04/20 01:49:29;;;;;;;9.30;4.80;;;9.60;58.80;;;8.69;48.67;96975.63;4950128;28;20448;-76
2022/04/20 01:51:55;;;;;;;5.23;4.00;;;9.60;59.00;;;8.54;48.94;96971.78;4950166;29;20826;-76
2022/04/20 01:54:21;;;;;;;7.50;4.95;;;9.50;59.30;;;8.48;48.91;96962.22;4950418;29;20418;-75
2022/04/20 01:56:51;;;;;;;6.65;4.43;;;9.50;59.30;;;8.43;49.37;96970.06;4950488;29;20415;-76
2022/04/20 01:59:17;;;;;;;6.93;4.70;;;9.50;59.80;;;8.39;49.44;96981.38;4950107;28;20402;-76
2022/04/20 02:04:31;;;;;;;4.40;3.55;;;9.30;60.10;;;8.26;49.94;96981.72;4979522;28;20564;-76
2022/04/20 02:06:57;;;;;;;6.43;4.10;;;9.30;60.50;;;8.18;50.26;96976.88;4950259;28;20467;-76
2022/04/20 02:09:24;;;;;;;7.55;4.07;;;9.20;60.80;;;8.12;50.46;96978.63;4949987;28;20756;-76
2022/04/20 02:11:51;;;;;;;7.72;4.38;;;9.20;61.50;;;8.12;50.16;96982.06;4949626;28;20417;-77
2022/04/20 02:14:17;;;;;;;7.38;4.45;;;9.10;61.10;;;8.16;50.65;96979.75;4950219;29;20555;-75
2022/04/20 02:16:43;;;;;;;5.75;4.25;;;9.10;61.60;;;8.08;50.61;96983.59;4949842;29;20513;-74
2022/04/20 02:19:09;;;;;;;7.50;5.07;;;9.10;61.80;;;8.03;50.44;96978.28;4949578;29;20437;-74
2022/04/20 02:21:35;;;;;;;7.03;4.37;;;9.10;61.70;;;8.00;50.69;96984.03;4949541;29;20447;-74
2022/04/20 02:24:00;;;;;;;5.15;4.18;;;9.10;61.80;;;7.96;50.81;96980.31;4948791;29;21085;-76
2022/04/20 02:26:26;;;;;;;7.00;4.35;;;9.10;62.00;;;8.00;51.25;96984.03;4949839;29;20406;-74
2022/04/20 02:28:54;;;;;;;5.57;4.10;;;9.00;62.60;;;8.01;50.86;96985.63;4949674;29;20446;-76
2022/04/20 02:31:20;;;;;;;5.70;4.40;;;9.10;62.40;;;7.96;51.09;96982.13;4949667;29;20418;-75
2022/04/20 02:33:46;;;;;;;6.30;4.28;;;9.00;62.30;;;7.90;52.06;96975.97;4949686;28;20753;-75
2022/04/20 02:36:11;;;;;;;6.25;4.10;;;9.00;63.60;;;7.88;51.70;96979.91;4949664;29;20425;-77
2022/04/20 02:38:39;;;;;;;4.30;3.70;;;8.90;63.30;;;7.83;51.61;96985.09;4949542;29;20414;-74
2022/04/20 02:41:08;;;;;;;6.43;4.55;;;8.90;63.30;;;7.72;52.61;96984.19;4949175;29;20791;-75
2022/04/20 02:43:34;;;;;;;5.40;4.20;;;8.80;64.60;;;7.65;52.93;96984.34;4949562;28;20483;-76
2022/04/20 02:46:02;;;;;;;5.30;3.90;;;8.70;64.90;;;7.60;53.11;96983.47;4948433;28;20511;-76
2022/04/20 02:48:27;;;;;;;7.32;4.40;;;8.70;65.40;;;7.54;53.38;96974.69;4949671;28;20410;-74
2022/04/20 02:50:53;;;;;;;6.55;4.20;;;8.60;65.70;;;7.50;53.22;96972.81;4948896;29;20836;-74
2022/04/20 02:53:19;;;;;;;7.70;4.20;;;8.60;65.70;;;7.52;52.94;96979.41;4949524;29;20430;-75
2022/04/20 02:55:45;;;;;;;5.20;4.20;;;8.60;66.00;;;7.48;53.16;96980.13;4949385;29;20934;-74
2022/04/20 02:58:11;;;;;;;4.40;4.00;;;8.50;65.50;;;7.43;53.04;96975.59;4949464;29;20937;-74
2022/04/20 03:00:37;;;;;;;4.80;3.73;;;8.50;65.70;;;7.38;53.16;96972.88;4949057;28;20422;-74
2022/04/20 03:03:05;;;;;;;5.72;4.32;;;8.50;65.70;;;7.32;53.52;96979.09;4949311;28;20421;-74
2022/04/20 03:05:31;;;;;;;6.10;4.17;;;8.40;66.10;;;7.24;53.63;96976.88;4949433;28;21104;-74
2022/04/20 03:07:57;;;;;;;7.15;4.60;;;8.40;66.20;;;7.13;54.24;96975.94;4949454;28;20410;-74
2022/04/20 03:10:23;;;;;;;5.87;4.40;;;8.30;67.30;;;7.04;54.58;96974.72;4948612;29;20506;-74
2022/04/20 03:12:49;;;;;;;6.25;4.63;;;8.20;67.70;;;6.85;55.54;96978.59;4949246;29;20416;-75
2022/04/20 03:15:15;;;;;;;5.40;4.20;;;8.10;68.50;;;6.77;55.69;96984.22;4949222;28;20410;-75
2022/04/20 03:17:42;;;;;;;5.45;4.43;;;7.90;69.10;;;6.65;56.42;96984.28;4949134;28;20422;-74
2022/04/20 03:20:10;;;;;;;6.05;4.28;;;7.80;69.80;;;6.57;56.29;96985.47;4948868;28;20429;-74
2022/04/20 03:22:36;;;;;;;5.65;4.40;;;7.80;70.10;;;6.60;55.86;96986.84;4949385;28;20410;-74
2022/04/20 03:25:03;;;;;;;5.97;4.40;;;7.80;69.70;;;6.48;56.09;96978.19;4949240;29;20445;-75
2022/04/20 03:27:29;;;;;;;6.35;4.40;;;7.70;69.80;;;6.41;56.31;96986.22;4949026;29;20402;-73
2022/04/20 03:29:55;;;;;;;5.90;4.07;;;7.60;70.10;;;6.36;56.38;96988.75;4948931;29;20437;-74
2022/04/20 03:32:21;;;;;;;5.68;4.07;;;7.60;70.40;;;6.34;56.71;96987.38;4948608;29;20414;-75
2022/04/20 03:34:47;;;;;;;6.57;4.35;;;7.50;70.80;;;6.25;56.88;96994.84;4949599;28;20906;-75
2022/04/20 03:37:15;;;;;;;5.60;4.63;;;7.40;71.20;;;6.17;57.62;96997.81;4952419;29;20961;-75
2022/04/20 03:39:41;;;;;;;6.30;4.78;;;7.40;72.00;;;6.10;58.07;96995.31;4952243;29;20984;-76
2022/04/20 03:42:08;;;;;;;6.88;5.10;;;7.30;72.80;;;6.15;57.51;96994.66;4952214;29;20409;-76
2022/04/20 03:44:34;;;;;;;5.90;4.53;;;7.30;72.60;;;6.17;57.14;96996.00;4952221;28;20422;-74
2022/04/20 03:47:00;;;;;;;5.97;4.50;;;7.30;72.20;;;6.08;57.55;96992.16;4952141;29;20509;-75
2022/04/20 03:49:26;;;;;;;8.18;4.47;;;7.30;72.40;;;6.03;57.82;96993.84;4951955;29;20493;-74
2022/04/20 03:51:52;;;;;;;7.10;4.75;;;7.20;72.60;;;5.90;57.99;96994.09;4951870;29;20461;-75
2022/04/20 03:54:19;;;;;;;7.77;4.97;;;7.10;73.10;;;5.81;58.39;96991.00;4951037;29;20791;-75
2022/04/20 03:57:03;;;;;;;6.70;4.55;;;7.00;73.80;;;5.74;58.88;96991.13;4952157;29;20815;-75
2022/04/20 03:59:29;;;;;;;6.05;4.88;;;7.00;74.20;;;5.65;59.54;96983.81;4952045;29;20423;-75
2022/04/20 04:01:55;;;;;;;6.07;4.57;;;6.90;75.10;;;5.62;59.25;96989.53;4951438;28;20440;-75
2022/04/20 04:04:21;;;;;;;8.05;5.13;;;6.90;75.00;;;5.60;59.21;96983.72;4963013;28;20770;-74
2022/04/20 04:06:47;;;;;;;6.32;4.60;;;6.80;74.90;;;5.56;59.20;96991.25;4968932;28;20878;-75
2022/04/20 04:09:13;;;;;;;6.40;4.40;;;6.80;75.10;;;5.51;59.31;96991.13;4963062;28;20404;-76
2022/04/20 04:11:41;;;;;;;5.97;4.40;;;6.70;75.30;;;5.43;59.77;96986.22;4969542;28;20570;-75
2022/04/20 04:14:07;;;;;;;5.78;4.30;;;6.70;75.90;;;5.41;59.62;96986.44;4971161;28;20435;-75
2022/04/20 04:16:36;;;;;;;6.70;4.70;;;6.60;75.90;;;5.38;59.56;96975.63;4971156;28;20408;-74
2022/04/20 04:19:03;;;;;;;5.75;4.50;;;6.60;76.00;;;5.34;59.96;96977.88;4970932;28;20495;-75
2022/04/20 04:21:29;;;;;;;6.13;4.40;;;6.60;76.10;;;5.31;59.76;96980.97;4961510;28;20437;-75
2022/04/20 04:23:55;;;;;;;8.15;4.75;;;6.50;76.30;;;5.33;59.66;96983.38;4967189;28;20945;-75
2022/04/20 04:26:21;;;;;;;5.70;4.50;;;6.60;76.10;;;5.31;59.42;96988.03;4970973;28;20503;-75
2022/04/20 04:28:48;;;;;;;6.20;5.38;;;6.50;76.10;;;5.28;59.64;96988.50;4970730;28;20473;-76
2022/04/20 04:31:14;;;;;;;6.97;4.72;;;6.50;76.60;;;5.27;59.85;96981.63;4970447;28;20409;-76
2022/04/20 04:33:40;;;;;;;6.60;5.03;;;6.50;76.50;;;5.24;59.85;96990.78;4970885;28;20411;-77
2022/04/20 04:36:07;;;;;;;6.20;4.43;;;6.40;76.70;;;5.19;60.22;96993.28;4971092;28;20527;-77
2022/04/20 04:38:33;;;;;;;7.20;4.97;;;6.40;76.80;;;5.17;60.43;96997.97;4970794;28;20403;-76
2022/04/20 04:40:59;;;;;;;8.10;5.43;;;6.40;77.30;;;5.12;60.93;96994.41;5011472;22;20432;-77
2022/04/20 04:43:25;;;;;;;8.85;5.15;;;6.30;78.00;;;5.03;61.37;96988.69;4979200;28;20828;-77
2022/04/20 04:48:37;;;;;;;5.97;4.28;;;6.20;78.80;;;5.04;61.66;96998.94;4993778;28;20429;-78
2022/04/20 04:51:03;;;;;;;7.45;4.90;;;6.20;79.10;;;5.03;61.67;96997.38;5005237;28;20942;-78
2022/04/20 04:53:29;;;;;;;5.03;4.40;;;6.30;79.50;;;5.06;61.86;97001.34;5054285;28;20398;-78
2022/04/20 04:55:55;;;;;;;6.40;4.70;;;6.20;79.60;;;5.05;61.90;97002.38;5056463;28;20403;-77
2022/04/20 04:58:21;;;;;;;10.10;5.72;;;6.30;79.80;;;5.09;61.84;97005.34;5056186;28;20410;-76
2022/04/20 05:00:47;;;;;;;8.50;5.43;;;6.30;79.60;;;5.15;61.48;97005.25;5004814;28;20490;-76
2022/04/20 05:03:16;;;;;;;6.70;5.47;;;6.30;79.30;;;5.18;61.43;97004.00;4958201;28;20453;-76
2022/04/20 05:05:42;;;;;;;8.65;6.07;;;6.40;79.70;;;5.21;61.98;96998.28;4942669;29;20931;-76
2022/04/20 05:08:08;;;;;;;10.70;6.90;;;6.40;80.20;;;5.26;61.83;97001.06;4941417;29;20418;-76
2022/04/20 05:10:35;;;;;;;9.35;6.82;;;6.40;80.20;;;5.24;61.82;97001.28;4945337;29;20413;-76
2022/04/20 05:13:01;;;;;;;9.75;6.70;;;6.50;80.00;;;5.34;61.58;97006.75;4935737;29;20462;-77
2022/04/20 05:15:27;;;;;;;13.13;7.22;;;6.50;80.00;;;5.40;61.27;97003.25;4947184;28;20889;-77
2022/04/20 05:17:53;;;;;;;9.85;6.65;;;6.60;79.70;;;5.41;61.35;96999.56;4940605;29;20902;-77
2022/04/20 05:20:21;;;;;;;10.98;6.80;;;6.60;79.50;;;5.48;61.09;97004.72;4949327;29;20470;-77
2022/04/20 05:22:47;;;;;;;11.10;7.28;;;6.60;79.30;;;5.60;60.64;97007.34;4940229;29;20427;-76
2022/04/20 05:25:13;;;;;;;9.77;6.10;;;6.80;79.00;;;5.62;60.89;97013.19;4945322;29;20417;-76
2022/04/20 05:27:39;;;;;;;9.20;6.20;;;6.70;78.70;;;5.66;60.68;97001.97;4945925;28;20413;-76
2022/04/20 05:30:07;;;;;;;9.18;6.05;;;6.80;78.70;;;5.68;60.54;97009.63;4935699;28;20742;-78
2022/04/20 05:32:33;;;;;;;10.10;5.97;;;6.80;78.90;;;5.76;60.68;97012.72;4951178;29;20444;-78
2022/04/20 05:34:59;;;;;;;7.63;5.32;;;6.90;78.90;;;5.81;60.51;97007.56;4945484;28;20418;-76
2022/04/20 05:42:57;;;;;;;7.97;5.43;;;7.10;78.50;;;6.03;60.27;97009.63;4940571;29;20940;-73
2022/04/20 05:45:23;;;;;;;7.85;5.30;;;7.10;78.20;;;6.04;60.13;97006.75;4945196;29;20852;-76
2022/04/20 05:47:49;;;;;;;8.73;5.40;;;7.20;78.10;;;6.11;60.11;97009.25;4943808;29;20822;-77
2022/04/20 05:50:15;;;;;;;8.32;4.97;;;7.20;78.10;;;6.14;60.14;97012.25;4932955;29;20422;-76
2022/04/20 05:52:43;;;;;;;8.55;4.90;;;7.30;78.10;;;6.22;60.20;97014.50;4940246;29;20417;-76
2022/04/20 05:55:09;;;;;;;7.25;4.95;;;7.30;78.10;;;6.28;59.97;97015.41;4945749;29;20417;-76
2022/04/20 05:57:36;;;;;;;9.38;5.43;;;7.40;78.20;;;6.35;60.00;97021.31;4944747;28;20423;-76
2022/04/20 06:00:04;;;;;;;9.55;5.35;;;7.40;78.20;;;6.40;59.41;97024.03;4938930;28;20407;-75
2022/04/20 06:02:33;;;;;;;6.32;4.53;;;7.40;78.00;;;6.36;59.28;97019.50;4934729;29;20434;-76
2022/04/20 06:04:59;;;;;;;6.07;4.60;;;7.40;77.10;;;6.41;59.00;97015.13;4931475;29;20451;-77
2022/04/20 06:07:25;;;;;;;9.00;4.63;;;7.50;76.90;;;6.49;58.64;97020.03;4931411;29;20423;-76
2022/04/20 06:09:53;;;;;;;8.77;5.00;;;7.60;76.40;;;6.57;57.60;97022.28;4931474;29;20412;-77
2022/04/20 06:12:20;;;;;;;6.80;4.60;;;7.60;75.30;;;6.64;57.33;97023.97;4931749;29;20451;-77
2022/04/20 06:14:46;;;;;;;7.65;4.38;;;7.70;74.80;;;6.70;57.22;97021.19;4931524;29;20415;-77
2022/04/20 06:17:13;;;;;;;6.28;4.63;;;7.70;74.30;;;6.76;56.04;97022.13;4931570;29;20404;-77
2022/04/20 06:19:39;;;;;;;8.82;4.90;;;7.80;73.10;;;6.81;55.85;97022.19;4931760;29;20443;-76
2022/04/20 06:22:05;;;;;;;6.35;4.63;;;7.80;72.50;;;6.87;55.49;97031.78;4931449;29;20431;-78
2022/04/20 06:24:30;;;;;;;7.53;4.40;;;7.90;72.20;;;6.90;55.73;97018.97;4933477;29;20444;-77
2022/04/20 06:26:58;;;;;;;8.05;4.93;;;8.00;72.30;;;6.97;55.04;97021.44;4948462;28;20410;-76
2022/04/20 06:29:24;;;;;;;7.28;4.63;;;8.00;71.70;;;7.02;54.81;97018.88;4962719;28;20421;-77
2022/04/20 06:31:51;;;;;;;8.73;4.55;;;8.10;71.40;;;7.06;54.76;97017.41;4962278;28;20799;-76
2022/04/20 06:34:17;;;;;;;8.38;4.82;;;8.10;71.10;;;7.14;54.23;97011.72;4961261;28;20478;-77
2022/04/20 06:36:45;;;;;;;7.53;4.67;;;8.20;70.70;;;7.20;54.61;97013.41;4952656;28;20513;-77
2022/04/20 06:39:11;;;;;;;6.20;4.20;;;8.20;70.70;;;7.22;54.60;97021.84;4957879;28;20462;-76
2022/04/20 06:41:37;;;;;;;7.50;4.30;;;8.20;70.40;;;7.26;53.39;97014.28;4957175;28;20426;-77
2022/04/20 06:44:05;;;;;;;7.80;4.80;;;8.30;69.70;;;7.32;53.10;97015.97;4959604;28;20437;-77
2022/04/20 06:46:31;;;;;;;7.20;4.28;;;8.30;69.10;;;7.35;53.35;97012.88;4954373;28;20887;-74
2022/04/20 06:48:57;;;;;;;6.13;4.30;;;8.40;68.80;;;7.38;53.53;97018.44;4952992;28;20495;-73
2022/04/20 06:51:23;;;;;;;6.22;4.80;;;8.40;69.10;;;7.44;52.08;97010.63;4959599;28;20400;-75
2022/04/20 06:59:20;;;;;;;6.00;3.92;;;8.50;66.60;;;7.60;51.75;97015.06;4950310;29;20460;-78
2022/04/20 07:01:46;;;;;;;5.50;4.00;;;8.60;66.50;;;7.62;52.24;97010.38;4949639;28;20452;-77
2022/04/20 07:04:12;;;;;;;5.87;3.87;;;8.60;67.00;;;7.64;51.24;97019.63;4948675;29;20421;-79
2022/04/20 07:06:38;;;;;;;4.38;3.83;;;8.60;65.60;;;7.70;51.24;97002.84;4950101;28;20437;-74
2022/04/20 07:09:04;;;;;;;4.65;3.80;;;8.70;65.70;;;7.72;49.83;97007.88;4949624;29;20919;-76
2022/04/20 07:11:30;;;;;;;4.07;3.60;;;8.70;64.00;;;7.67;48.45;97011.22;4948939;29;20425;-74
2022/04/20 07:13:56;;;;;;;8.00;4.47;;;8.60;61.70;;;7.63;48.71;97004.88;4949787;28;20432;-76
2022/04/20 07:16:23;;;;;;;6.43;3.92;;;8.60;61.70;;;7.68;50.14;97004.13;4947919;29;20446;-74
2022/04/20 07:18:50;;;;;;;5.25;4.00;;;8.70;63.60;;;7.72;49.98;97006.06;4957636;28;20943;-74
2022/04/20 07:21:16;;;;;;;4.22;3.60;;;8.70;63.60;;;7.78;50.07;96999.00;4949046;29;20406;-73
2022/04/20 07:23:42;;;;;;;6.40;4.10;;;8.80;63.70;;;7.80;49.13;96994.31;4949333;29;20425;-73
2022/04/20 07:26:11;;;;;;;6.47;4.60;;;8.80;62.70;;;7.87;49.56;96994.13;4952225;28;20809;-76
2022/04/20 07:28:37;;;;;;;6.10;3.65;;;8.80;63.00;;;7.94;49.59;96998.19;4953565;28;20903;-74
2022/04/20 07:31:04;;;;;;;5.33;4.07;;;8.90;63.00;;;8.00;49.33;96996.41;4949037;29;20402;-76
2022/04/20 07:33:32;;;;;;;4.80;3.88;;;9.00;62.50;;;8.06;48.91;97000.69;4949145;29;20410;-75
2022/04/20 07:35:57;;;;;;;7.82;4.00;;;9.00;61.80;;;8.07;47.94;96995.19;4947927;28;20414;-75
2022/04/20 07:38:25;;;;;;;6.05;4.07;;;9.00;60.40;;;8.12;47.32;97007.63;4947260;28;20436;-74
2022/04/20 07:40:51;;;;;;;4.72;3.60;;;9.10;60.50;;;8.22;47.71;97007.75;4946496;28;20426;-75
2022/04/20 07:43:17;;;;;;;5.93;3.67;;;9.10;60.50;;;8.29;48.42;97011.00;4957639;28;20400;-75
2022/04/20 07:45:43;;;;;;;5.25;4.00;;;9.20;61.10;;;8.33;47.54;97008.72;4966770;28;20451;-74
2022/04/20 07:48:09;;;;;;;4.90;3.67;;;9.30;59.90;;;8.32;46.69;97005.28;4966689;28;20425;-73
2022/04/20 07:50:38;;;;;;;5.75;3.80;;;9.30;59.20;;;8.38;47.86;97012.22;4968008;28;20507;-76
2022/04/20 07:53:06;;;;;;;4.90;3.53;;;9.30;59.90;;;8.45;48.68;97010.19;4968673;28;20401;-74
2022/04/20 07:55:34;;;;;;;6.90;3.60;;;9.40;61.00;;;8.50;47.16;97010.22;4969881;28;20400;-75
2022/04/20 07:58:03;;;;;;;6.03;3.78;;;9.50;59.60;;;8.58;48.07;97024.84;4968672;28;20813;-75
2022/04/20 08:00:29;;;;;;;5.57;3.90;;;9.50;60.40;;;8.66;47.50;97005.94;4967510;28;20489;-76
2022/04/20 08:03:08;;;;;;;5.47;3.75;;;9.60;59.80;;;8.73;48.21;97013.66;4968021;28;20411;-75
2022/04/20 08:05:36;;;;;;;5.47;3.97;;;9.70;60.60;;;8.77;46.45;97017.41;4967974;28;20420;-75
2022/04/20 08:08:02;;;;;;;6.53;3.95;;;9.70;59.00;;;8.81;47.09;97013.19;4968054;28;20412;-76
2022/04/20 08:10:28;;;;;;;5.40;4.05;;;9.70;59.30;;;8.90;46.55;97017.00;4967345;28;20785;-75
2022/04/20 08:12:54;;;;;;;5.10;3.60;;;9.80;58.60;;;8.90;46.36;97023.06;4967940;28;20408;-76
2022/04/20 08:15:20;;;;;;;4.72;3.92;;;9.80;58.10;;;8.96;46.33;97017.84;4968007;28;20400;-76
2022/04/20 08:17:46;;;;;;;5.88;3.80;;;9.90;58.50;;;9.10;46.90;97009.25;4968060;28;20412;-76
2022/04/20 08:20:11;;;;;;;7.10;4.20;;;9.90;59.00;;;9.08;46.48;97014.03;4967326;28;20860;-75
2022/04/20 08:22:44;;;;;;;8.38;4.07;;;10.00;58.50;;;9.06;45.28;97008.19;4969630;28;20408;-75
2022/04/20 08:25:12;;;;;;;5.53;4.03;;;10.00;57.40;;;9.10;46.51;97008.47;4969649;28;20485;-75
2022/04/20 08:27:39;;;;;;;6.85;4.00;;;10.00;58.40;;;9.13;46.08;97008.78;4971289;28;20769;-75
2022/04/20 08:30:07;;;;;;;4.80;4.00;;;10.00;57.80;;;9.22;46.25;97011.75;4970789;28;20412;-75
2022/04/20 08:32:34;;;;;;;8.35;4.13;;;10.10;58.00;;;9.21;46.04;97005.69;4971057;28;20413;-76
2022/04/20 08:35:00;;;;;;;5.13;4.00;;;10.10;57.70;;;9.23;46.42;97005.44;4971026;28;20413;-75
2022/04/20 08:37:26;;;;;;;6.45;3.50;;;10.10;58.10;;;9.32;46.56;97017.13;4970913;28;20401;-75
2022/04/20 08:39:54;;;;;;;4.33;3.90;;;10.20;58.40;;;9.43;47.20;97008.22;4970626;28;20482;-75
2022/04/20 08:42:22;;;;;;;7.20;3.78;;;10.30;59.20;;;9.55;46.59;97010.69;4970691;28;20405;-75
2022/04/20 08:44:50;;;;;;;5.47;4.10;;;10.40;58.50;;;9.60;46.78;97011.53;4970837;28;20427;-75
2022/04/20 08:47:20;;;;;;;6.25;3.90;;;10.50;58.80;;;9.73;47.10;97017.44;4970950;28;20412;-76
2022/04/20 08:49:49;;;;;;;5.68;4.10;;;10.60;59.20;;;9.78;46.96;97020.88;4969435;28;20823;-76
2022/04/20 08:55:04;;;;;;;6.10;3.60;;;10.80;59.10;;;9.96;46.88;97012.56;4970740;28;20867;-76
2022/04/20 08:57:32;;;;;;;4.80;3.90;;;10.80;58.90;;;10.08;46.83;97013.13;4970679;28;20419;-74
2022/04/20 08:59:58;;;;;;;5.70;3.88;;;10.90;58.90;;;10.14;46.63;97008.69;4970636;28;20419;-74
2022/04/20 09:02:25;;;;;;;4.53;3.78;;;11.00;59.00;;;10.26;46.06;97022.53;4970228;28;20426;-75
2022/04/20 09:04:51;;;;;;;12.23;4.22;;;11.10;58.30;;;10.20;43.70;97002.41;4970592;28;20520;-75
2022/04/20 09:07:18;;;;;;;5.15;3.40;;;11.10;55.60;;;10.24;45.53;97010.59;4970623;28;20412;-76
2022/04/20 09:09:44;;;;;;;10.80;4.20;;;11.10;56.80;;;10.28;44.79;97004.56;4969188;28;20426;-75
2022/04/20 09:12:16;;;;;;;5.55;3.67;;;11.20;56.60;;;10.34;44.27;97000.06;4970129;28;20773;-74
2022/04/20 09:14:43;;;;;;;7.80;3.85;;;11.20;55.80;;;10.35;44.48;96999.81;4970427;28;20463;-76
2022/04/20 09:17:11;;;;;;;6.32;3.67;;;11.20;55.70;;;10.41;44.76;97005.91;4977949;28;20831;-76
2022/04/20 09:19:38;;;;;;;6.75;4.05;;;11.30;56.50;;;10.45;43.83;96991.91;5010087;28;20480;-75
2022/04/20 09:22:18;;;;;;;6.72;3.70;;;11.30;55.10;;;10.55;43.43;96991.16;4997546;28;20441;-76
2022/04/20 09:25:10;;;;;;;5.65;3.38;;;11.40;54.90;;;10.67;43.37;96990.94;4951769;28;20433;-76
2022/04/20 09:27:40;;;;;;;9.65;3.72;;;11.50;54.50;;;10.79;43.23;96997.56;4979852;28;20821;-76
2022/04/20 09:30:11;;;;;;;4.90;3.13;;;11.60;54.60;;;10.88;42.55;97000.50;5008281;28;20771;-75
2022/04/20 09:32:39;;;;;;;6.47;3.40;;;11.70;54.20;;;10.94;41.96;96998.66;5051690;28;20428;-75
2022/04/20 09:35:08;;;;;;;3.80;3.03;;;11.80;53.00;;;10.95;41.11;96993.09;5051823;28;20763;-76
2022/04/20 09:37:36;;;;;;;5.68;3.47;;;11.80;51.80;;;11.00;41.96;96987.81;5051750;28;20459;-75
2022/04/20 09:40:05;;;;;;;4.18;2.88;;;11.80;52.20;;;11.11;42.25;96996.56;5051398;28;20786;-75
2022/04/20 09:42:34;;;;;;;4.80;3.30;;;11.90;53.30;;;11.24;41.48;97004.00;5050001;28;20501;-75
2022/04/20 09:45:04;;;;;;;3.97;3.10;;;12.10;52.60;;;11.33;41.08;96996.31;5051557;28;21061;-75
2022/04/20 09:50:22;;;;;;;4.85;2.95;;;12.20;51.60;;;11.60;39.95;96989.69;5050979;28;20551;-75
2022/04/20 09:52:49;;;;;;;4.82;2.97;;;12.40;51.00;;;11.61;39.53;96995.78;5051577;28;20425;-75
2022/04/20 09:55:27;;;;;;;4.20;3.03;;;12.40;49.80;;;11.67;40.38;96989.41;5051429;28;20480;-76
2022/04/20 09:58:08;;;;;;;3.27;2.70;;;12.50;51.00;;;11.71;39.95;96987.03;5051474;28;20394;-74
2022/04/20 10:00:40;;;;;;;5.60;2.70;;;12.50;50.50;;;11.74;39.31;96994.41;5050751;28;20485;-76
2022/04/20 10:03:06;;;;;;;6.38;2.80;;;12.50;49.40;;;11.83;39.91;96980.38;5051414;28;20941;-74
2022/04/20 10:05:33;;;;;;;4.72;2.60;;;12.60;49.60;;;11.92;37.42;96991.25;5051252;28;20907;-75
2022/04/20 10:07:59;;;;;;;4.28;2.85;;;12.70;48.00;;;12.07;37.25;96982.47;5051210;28;20429;-74
2022/04/20 10:10:26;;;;;;;3.72;2.30;;;12.90;47.10;;;12.18;35.41;96979.50;5050557;28;20817;-75
2022/04/20 10:12:54;;;;;;;4.22;2.53;;;13.00;45.70;;;12.45;36.65;96973.81;5051100;28;20501;-74
2022/04/20 10:18:14;;;;;;;4.18;2.13;;;13.40;45.30;;;13.18;36.17;96974.72;5051222;28;20443;-76
2022/04/20 10:20:43;;;;;;;13.05;3.20;;;13.80;46.20;;;13.36;33.24;96970.63;5050718;28;20401;-75
2022/04/20 10:23:10;;;;;;;5.05;2.60;;;14.20;42.40;;;13.97;34.04;96970.03;5051025;28;20405;-74
2022/04/20 10:25:39;;;;;;;3.40;2.42;;;14.60;43.30;;;14.35;33.73;96968.28;5050975;28;20471;-75
2022/04/20 10:28:17;;;;;;;4.60;2.38;;;15.00;42.80;;;14.81;32.83;96965.81;5050861;28;20408;-75
2022/04/20 10:30:59;;;;;;;3.40;2.08;;;15.20;41.30;;;15.39;33.31;96968.16;5048940;28;20770;-76
2022/04/20 10:33:31;;;;;;;4.03;2.90;;;15.90;43.10;;;15.49;29.84;96970.63;5050877;28;20393;-75
2022/04/20 10:36:00;;;;;;;4.95;2.50;;;16.20;38.10;;;15.94;30.88;96953.06;5050900;28;20886;-76
2022/04/20 10:38:29;;;;;;;3.42;2.30;;;16.30;39.40;;;16.32;29.39;96944.84;5050768;28;20894;-76
2022/04/20 10:41:07;;;;;;;5.25;2.10;;;16.80;37.60;;;16.87;29.81;96948.25;5018254;22;20618;-76
2022/04/20 10:43:35;;;;;;;4.57;2.47;;;17.20;38.30;;;17.28;30.61;96948.13;4968831;28;20524;-76
2022/04/20 10:46:16;;;;;;;4.95;2.10;;;17.70;39.50;;;18.37;29.86;96939.34;4967867;28;20455;-75
2022/04/20 10:48:51;;;;;;;3.42;1.95;;;18.50;38.60;;;19.02;27.69;96951.16;4968558;28;20416;-75
2022/04/20 10:51:19;;;;;;;3.80;2.20;;;19.30;36.60;;;18.89;26.86;96950.19;4961010;28;20483;-75
2022/04/20 10:53:50;;;;;;;4.82;2.13;;;19.30;34.30;;;19.05;24.63;96937.09;4968069;28;20423;-74